createdAt,value
2024-03-15T00:03:26.583Z,23.73
2024-03-15T00:08:29.392Z,29.30
2024-03-15T00:13:32.412Z,26.63
2024-03-15T00:18:38.235Z,25.67
2024-03-15T00:23:41.080Z,29.33
2024-03-15T00:28:43.821Z,30.77
2024-03-15T00:33:46.689Z,31.02
2024-03-15T00:38:49.541Z,28.20
2024-03-15T00:43:52.711Z,32.85
2024-03-15T00:48:55.498Z,30.90
2024-03-15T00:53:58.217Z,30.02
2024-03-15T00:59:00.936Z,32.80
2024-03-15T01:04:05.117Z,29.35
2024-03-15T01:09:08.262Z,26.70
2024-03-15T01:14:11.129Z,28.08
2024-03-15T01:19:14.794Z,34.15
2024-03-15T01:24:18.080Z,34.65
2024-03-15T01:29:20.845Z,35.00
2024-03-15T01:34:23.998Z,36.10
2024-03-15T01:39:26.849Z,34.20
2024-03-15T01:44:30.113Z,41.25
2024-03-15T01:49:32.846Z,33.33
2024-03-15T01:54:35.626Z,39.85
2024-03-15T01:59:38.372Z,43.22
2024-03-15T02:04:41.523Z,39.35
2024-03-15T02:09:44.323Z,49.33
2024-03-15T02:14:49.494Z,41.05
2024-03-15T02:19:52.259Z,39.50
2024-03-15T02:24:55.024Z,34.83
2024-03-15T02:29:57.788Z,36.67
2024-03-15T02:35:02.957Z,44.58
2024-03-15T02:40:10.701Z,40.65
2024-03-15T02:45:13.534Z,42.65
2024-03-15T02:50:16.388Z,55.63
2024-03-15T02:55:19.781Z,34.10
2024-03-15T03:00:22.816Z,45.97
2024-03-15T03:05:25.621Z,28.80
2024-03-15T03:10:29.253Z,34.20
2024-03-15T03:15:32.038Z,33.53
2024-03-15T03:20:34.900Z,39.33
2024-03-15T03:25:37.642Z,40.90
2024-03-15T03:30:40.450Z,39.17
2024-03-15T03:35:43.222Z,39.65
2024-03-15T03:40:45.954Z,43.22
2024-03-15T03:45:48.730Z,51.72
2024-03-15T03:50:51.750Z,49.00
2024-03-15T03:55:54.476Z,47.63
2024-03-15T04:00:57.348Z,36.60
2024-03-15T04:06:00.523Z,42.13
2024-03-15T04:11:03.403Z,36.13
2024-03-15T04:16:07.610Z,34.33
2024-03-15T04:21:11.914Z,50.53
2024-03-15T04:26:14.781Z,47.85
2024-03-15T04:31:17.703Z,36.28
2024-03-15T04:36:20.445Z,31.40
2024-03-15T04:41:24.192Z,62.63
2024-03-15T04:46:26.933Z,34.67
2024-03-15T04:51:29.680Z,36.17
2024-03-15T04:56:32.423Z,154.48
2024-03-15T05:01:35.178Z,34.75
2024-03-15T05:06:37.908Z,32.45
2024-03-15T05:11:41.635Z,43.38
2024-03-15T05:16:53.952Z,41.60
2024-03-15T05:21:56.694Z,37.13
2024-03-15T05:27:00.062Z,39.70
2024-03-15T05:32:04.548Z,33.60
2024-03-15T05:37:08.051Z,34.05
2024-03-15T05:42:10.802Z,26.73
2024-03-15T05:47:13.689Z,30.02
2024-03-15T05:52:16.682Z,25.23
2024-03-15T05:57:19.501Z,23.73
2024-03-15T06:02:22.363Z,31.05
2024-03-15T06:07:25.102Z,31.10
2024-03-15T06:12:28.920Z,34.22
2024-03-15T06:17:32.673Z,32.72
2024-03-15T06:22:35.476Z,33.85
2024-03-15T06:27:40.408Z,38.78
2024-03-15T06:32:43.300Z,49.13
2024-03-15T06:37:46.700Z,30.48
2024-03-15T06:43:10.741Z,33.38
2024-03-15T06:48:18.889Z,31.23
2024-03-15T06:53:21.871Z,26.15
2024-03-15T06:58:25.025Z,29.27
2024-03-15T07:03:28.928Z,26.08
2024-03-15T07:08:31.853Z,25.95
2024-03-15T07:13:34.590Z,27.23
2024-03-15T07:18:37.485Z,26.63
2024-03-15T07:23:40.778Z,26.65
2024-03-15T07:28:45.355Z,26.42
2024-03-15T07:33:48.147Z,25.23
2024-03-15T07:38:52.982Z,26.70
2024-03-15T07:43:55.904Z,25.20
2024-03-15T07:48:59.165Z,23.60
2024-03-15T07:54:01.935Z,22.75
2024-03-15T07:59:04.795Z,23.92
2024-03-15T08:04:10.233Z,21.63
2024-03-15T08:09:13.548Z,24.02
2024-03-15T08:14:16.906Z,16.48
2024-03-15T08:19:19.997Z,15.40
2024-03-15T08:24:23.031Z,15.60
2024-03-15T08:29:27.170Z,12.75
2024-03-15T08:34:30.417Z,16.50
2024-03-15T08:39:33.235Z,12.95
2024-03-15T08:44:36.011Z,13.02
2024-03-15T08:49:39.069Z,13.68
2024-03-15T08:54:42.202Z,13.73
2024-03-15T08:59:44.946Z,10.98
2024-03-15T09:04:48.554Z,12.25
2024-03-15T09:09:51.333Z,10.65
2024-03-15T09:14:55.383Z,9.95
2024-03-15T09:19:58.858Z,10.23
2024-03-15T09:25:01.787Z,10.30
2024-03-15T09:30:17.428Z,13.45
2024-03-15T09:35:20.630Z,12.43
2024-03-15T09:40:24.796Z,9.60
2024-03-15T09:45:28.112Z,8.85
2024-03-15T09:50:32.208Z,8.52
2024-03-15T09:55:35.562Z,11.15
2024-03-15T10:00:38.882Z,10.10
2024-03-15T10:05:41.645Z,10.88
2024-03-15T10:10:45.803Z,10.68
2024-03-15T10:15:49.074Z,10.35
2024-03-15T10:20:55.739Z,7.38
2024-03-15T10:25:58.522Z,8.35
2024-03-15T10:31:01.421Z,6.53
2024-03-15T10:36:09.417Z,6.82
2024-03-15T10:41:13.790Z,9.90
2024-03-15T10:46:16.605Z,11.43
2024-03-15T10:51:19.413Z,7.93
2024-03-15T10:56:22.388Z,7.63
2024-03-15T11:01:25.505Z,9.20
2024-03-15T11:06:40.663Z,6.95
2024-03-15T11:11:43.509Z,10.27
2024-03-15T11:16:46.339Z,6.88
2024-03-15T11:21:50.083Z,5.75
2024-03-15T11:26:53.030Z,6.60
2024-03-15T11:31:55.773Z,14.45
2024-03-15T11:36:58.509Z,10.15
2024-03-15T11:42:04.856Z,8.45
2024-03-15T11:47:07.625Z,7.13
2024-03-15T11:52:10.549Z,10.80
2024-03-15T11:57:13.419Z,6.80
2024-03-15T12:02:16.840Z,7.47
2024-03-15T12:07:19.904Z,5.25
2024-03-15T12:12:26.846Z,7.78
2024-03-15T12:17:29.827Z,6.60
2024-03-15T12:22:32.583Z,5.70
2024-03-15T12:27:36.690Z,5.38
2024-03-15T12:32:39.575Z,5.75
2024-03-15T12:37:42.696Z,3.40
2024-03-15T12:42:45.543Z,5.78
2024-03-15T12:47:48.332Z,4.75
2024-03-15T12:52:51.153Z,5.75
2024-03-15T12:57:54.614Z,7.63
2024-03-15T13:02:57.583Z,4.65
2024-03-15T13:08:00.339Z,3.78
2024-03-15T13:13:05.148Z,3.90
2024-03-15T13:18:08.339Z,4.05
2024-03-15T13:23:11.318Z,5.38
2024-03-15T13:28:14.575Z,3.15
2024-03-15T13:33:18.149Z,4.75
2024-03-15T13:38:21.461Z,5.72
2024-03-15T13:43:25.210Z,3.17
2024-03-15T13:48:29.456Z,3.65
2024-03-15T13:53:32.265Z,5.85
2024-03-15T13:58:34.984Z,6.30
2024-03-15T14:03:37.750Z,4.57
2024-03-15T14:08:40.488Z,3.80
2024-03-15T14:13:43.210Z,6.22
2024-03-15T14:18:46.769Z,4.15
2024-03-15T14:23:51.136Z,5.97
2024-03-15T14:28:53.864Z,4.18
2024-03-15T14:33:57.787Z,2.70
2024-03-15T14:39:01.043Z,2.40
2024-03-15T14:44:06.794Z,2.85
2024-03-15T14:49:09.918Z,2.78
2024-03-15T14:54:12.754Z,3.28
2024-03-15T14:59:17.520Z,4.22
2024-03-15T15:04:21.626Z,3.65
2024-03-15T15:09:26.400Z,4.50
2024-03-15T15:14:29.877Z,6.13
2024-03-15T15:19:32.710Z,6.95
2024-03-15T15:24:35.563Z,5.80
2024-03-15T15:29:38.339Z,3.95
2024-03-15T15:34:41.997Z,7.28
2024-03-15T15:39:44.757Z,10.38
2024-03-15T15:44:47.532Z,5.80
2024-03-15T15:49:50.309Z,4.30
2024-03-15T15:54:53.097Z,9.13
2024-03-15T15:59:55.983Z,4.68
2024-03-15T16:04:59.116Z,7.32
2024-03-15T16:10:02.719Z,4.90
2024-03-15T16:15:08.145Z,4.90
2024-03-15T16:20:14.219Z,5.60
2024-03-15T16:25:17.133Z,3.72
2024-03-15T16:30:20.805Z,3.45
2024-03-15T16:35:23.590Z,7.07
2024-03-15T16:40:26.372Z,5.80
2024-03-15T16:45:29.307Z,6.10
2024-03-15T16:50:32.065Z,4.93
2024-03-15T16:55:37.969Z,4.15
2024-03-15T17:00:40.908Z,11.77
2024-03-15T17:05:43.687Z,5.78
2024-03-15T17:10:48.005Z,6.18
2024-03-15T17:15:53.117Z,7.40
2024-03-15T17:20:57.673Z,5.60
2024-03-15T17:26:03.017Z,6.20
2024-03-15T17:31:06.793Z,5.07
2024-03-15T17:36:09.652Z,11.10
2024-03-15T17:41:12.780Z,6.43
2024-03-15T17:46:15.550Z,5.78
2024-03-15T17:51:18.410Z,5.65
2024-03-15T17:56:22.367Z,10.60
2024-03-15T18:01:25.170Z,7.03
2024-03-15T18:06:27.997Z,6.32
2024-03-15T18:11:30.874Z,10.90
2024-03-15T18:16:34.673Z,10.15
2024-03-15T18:21:37.565Z,9.57
2024-03-15T18:26:40.342Z,14.75
2024-03-15T18:31:43.080Z,8.25
2024-03-15T18:36:45.842Z,11.85
2024-03-15T18:41:48.598Z,9.55
2024-03-15T18:46:51.322Z,5.82
2024-03-15T18:51:54.108Z,9.93
2024-03-15T18:56:57.857Z,7.60
2024-03-15T19:02:02.876Z,6.30
2024-03-15T19:07:05.742Z,8.00
2024-03-15T19:12:08.698Z,8.73
2024-03-15T19:17:15.620Z,9.88
2024-03-15T19:22:18.365Z,8.68
2024-03-15T19:27:24.550Z,9.05
2024-03-15T19:32:28.668Z,13.73
2024-03-15T19:37:31.694Z,9.07
2024-03-15T19:42:34.480Z,8.00
2024-03-15T19:47:37.318Z,8.38
2024-03-15T19:52:40.115Z,10.00
2024-03-15T19:57:42.985Z,7.78
2024-03-15T20:02:45.979Z,8.43
2024-03-15T20:07:48.743Z,15.57
2024-03-15T20:12:51.520Z,21.23
2024-03-15T20:17:54.370Z,9.30
2024-03-15T20:22:57.307Z,7.10
2024-03-15T20:28:00.114Z,9.70
2024-03-15T20:33:02.925Z,7.57
2024-03-15T20:38:05.778Z,9.68
2024-03-15T20:43:09.082Z,10.57
2024-03-15T20:48:12.390Z,10.85
2024-03-15T20:53:15.330Z,8.55
2024-03-15T20:58:19.231Z,11.13
2024-03-15T21:03:22.116Z,11.40
2024-03-15T21:08:24.874Z,9.30
2024-03-15T21:13:27.593Z,11.82
2024-03-15T21:18:30.403Z,10.73
2024-03-15T21:23:33.163Z,12.15
2024-03-15T21:28:35.897Z,12.93
2024-03-15T21:33:38.716Z,13.55
2024-03-15T21:38:41.545Z,14.13
2024-03-15T21:43:44.304Z,13.25
2024-03-15T21:48:47.402Z,11.65
2024-03-15T21:53:50.146Z,11.65
2024-03-15T21:58:52.913Z,13.07
2024-03-15T22:03:55.658Z,12.70
2024-03-15T22:08:58.582Z,11.98
2024-03-15T22:14:07.027Z,12.20
2024-03-15T22:19:13.745Z,19.50
2024-03-15T22:24:16.541Z,15.13
2024-03-15T22:29:20.593Z,15.88
2024-03-15T22:34:23.335Z,10.95
2024-03-15T22:39:26.274Z,16.50
2024-03-15T22:44:29.061Z,13.57
2024-03-15T22:49:32.063Z,16.60
2024-03-15T22:54:34.869Z,17.35
2024-03-15T22:59:37.663Z,15.00
2024-03-15T23:04:41.551Z,15.23
2024-03-15T23:09:44.450Z,15.75
2024-03-15T23:14:47.629Z,15.20
2024-03-15T23:19:50.683Z,14.07
2024-03-15T23:24:53.768Z,15.68
2024-03-15T23:29:56.556Z,12.32
2024-03-15T23:35:00.831Z,15.88
2024-03-15T23:40:05.531Z,17.65
2024-03-15T23:45:08.511Z,15.10
2024-03-15T23:50:11.410Z,13.30
2024-03-15T23:55:14.294Z,15.90
